Weather at Andrew Airport [CLOSED]

Public forecast

Using degrees Celsius for public forecast. Weather courtesy of forecast.io.

Closest aviation weather report (METAR) to Andrew Airport

Closest report is Edmonton (CFB Namao) Heliport, 41.2 nm (76.3 km) WSW. Retrieved 2021/01/20 03:13 UTC (0 seconds ago):

CYED 200313Z AUTO 29021G30KT 9SM OVC026 03/M03 A2945

Closest aviation forecast (TAF) to Andrew Airport

Closest forecast is Edmonton (CFB Namao) Heliport, 41.2 nm (76.3 km) WSW. Retrieved 2021-01-20 00:33 UTC (3 hours ago):

TAF CYED 192330Z 2000/2012 24008KT P6SM FEW110 OVC180 BECMG 2002/2004 30025G40KT FM200400 30025G40KT P6SM SCT060 BKN110 TEMPO 2004/2010 P6SM -SHSNRA BKN060 OVC110 BECMG 2006/2008 30025G35KT FM201000 30018G28KT P6SM SCT250 BECMG 2010/2012 30015G25KT RMK FCST BASED ON AUTO OBS NXT FCST BY 200600Z